Fort Dodge, Iowa
Current Conditions -  °F | °C
As of 6:35 AM on Monday 26 Jan 2015 (Local Time) from KFOD Reporting Station
Overcast Overcast  
Wind Chill: 18°   Ceiling: 12000
Heat Index: 30°   Visibility: 9mi
Dew Point: 27°   Wind: 20mph
Humidity: 86%   Direction: 200°SSW
Pressure: 29.81"   Gusts: 24mph
Location:  42.5°N, 94.18°W
Report Text: KFOD 261235Z AUTO 20017G21KT 9SM FEW011 SCT100 OVC120 M01/M03 A2981 RMK AO1
Loading
Personal Weather Stations






























Interactive Weather Map New forecast layout! Learn more

10-Day Weather Forecast

Advertisements
Track Severe Weather on mobile